sensor_id;sensor_type;location;lat;lon;timestamp;temperature;humidity
11112;DHT22;5609;49.466;8.468;2022-08-06T11:27:50;30.80;99.90
11112;DHT22;5609;49.466;8.468;2022-08-06T11:30:20;28.00;23.30
11112;DHT22;5609;49.466;8.468;2022-08-06T11:32:50;27.40;42.00
11112;DHT22;5609;49.466;8.468;2022-08-06T11:35:43;27.60;42.00
11112;DHT22;5609;49.466;8.468;2022-08-06T11:38:13;27.90;38.80
11112;DHT22;5609;49.466;8.468;2022-08-06T11:40:54;27.90;30.10
11112;DHT22;5609;49.466;8.468;2022-08-06T11:44:04;27.90;29.30
11112;DHT22;5609;49.466;8.468;2022-08-06T11:46:34;28.10;28.00
11112;DHT22;5609;49.466;8.468;2022-08-06T11:49:20;28.50;30.40
11112;DHT22;5609;49.466;8.468;2022-08-06T11:51:49;28.40;28.00
11112;DHT22;5609;49.466;8.468;2022-08-06T11:54:18;28.60;23.50
11112;DHT22;5609;49.466;8.468;2022-08-06T11:57:23;28.60;27.60
11112;DHT22;5609;49.466;8.468;2022-08-06T12:02:55;28.90;22.80
11112;DHT22;5609;49.466;8.468;2022-08-06T12:23:53;29.20;8.70
11112;DHT22;5609;49.466;8.468;2022-08-06T12:26:20;30.00;1.00
11112;DHT22;5609;49.466;8.468;2022-08-06T12:28:48;30.00;1.00
11112;DHT22;5609;49.466;8.468;2022-08-06T12:31:28;30.10;1.00
11112;DHT22;5609;49.466;8.468;2022-08-06T12:33:55;30.00;1.00
11112;DHT22;5609;49.466;8.468;2022-08-06T12:36:27;30.00;1.00
11112;DHT22;5609;49.466;8.468;2022-08-06T12:38:56;29.80;1.00
11112;DHT22;5609;49.466;8.468;2022-08-06T12:41:32;30.20;1.00
11112;DHT22;5609;49.466;8.468;2022-08-06T12:43:59;30.20;1.00
11112;DHT22;5609;49.466;8.468;2022-08-06T12:46:26;30.20;1.00
11112;DHT22;5609;49.466;8.468;2022-08-06T18:47:06;30.60;1.00
11112;DHT22;5609;49.466;8.468;2022-08-06T18:49:40;25.00;1.00
11112;DHT22;5609;49.466;8.468;2022-08-06T18:52:09;24.60;1.00
11112;DHT22;5609;49.466;8.468;2022-08-06T18:54:37;24.50;1.00
11112;DHT22;5609;49.466;8.468;2022-08-06T18:57:06;24.30;1.00
11112;DHT22;5609;49.466;8.468;2022-08-06T18:59:33;24.20;1.00
11112;DHT22;5609;49.466;8.468;2022-08-06T19:01:59;24.10;1.00
11112;DHT22;5609;49.466;8.468;2022-08-06T19:06:54;23.80;1.00
11112;DHT22;5609;49.466;8.468;2022-08-06T19:09:22;23.60;1.00
11112;DHT22;5609;49.466;8.468;2022-08-06T19:14:16;23.60;1.00
11112;DHT22;5609;49.466;8.468;2022-08-06T19:16:43;23.40;1.00
11112;DHT22;5609;49.466;8.468;2022-08-06T19:19:10;23.30;1.00
11112;DHT22;5609;49.466;8.468;2022-08-06T19:21:36;23.20;1.00
11112;DHT22;5609;49.466;8.468;2022-08-06T19:24:03;23.10;1.00
11112;DHT22;5609;49.466;8.468;2022-08-06T19:26:32;23.00;1.00
11112;DHT22;5609;49.466;8.468;2022-08-06T19:28:59;23.00;1.00
11112;DHT22;5609;49.466;8.468;2022-08-06T19:31:26;22.90;1.00
11112;DHT22;5609;49.466;8.468;2022-08-06T19:33:53;22.80;1.00
11112;DHT22;5609;49.466;8.468;2022-08-06T19:36:19;22.80;1.00
11112;DHT22;5609;49.466;8.468;2022-08-06T19:38:46;22.70;1.00
11112;DHT22;5609;49.466;8.468;2022-08-06T19:41:13;22.60;1.00
11112;DHT22;5609;49.466;8.468;2022-08-06T19:48:35;22.60;1.00
11112;DHT22;5609;49.466;8.468;2022-08-06T19:51:02;22.30;1.00
11112;DHT22;5609;49.466;8.468;2022-08-06T19:53:29;22.20;1.00
11112;DHT22;5609;49.466;8.468;2022-08-06T19:55:56;22.20;1.00
11112;DHT22;5609;49.466;8.468;2022-08-06T19:58:23;22.10;1.00
11112;DHT22;5609;49.466;8.468;2022-08-06T20:00:51;22.10;1.00
11112;DHT22;5609;49.466;8.468;2022-08-06T20:03:18;22.10;1.00
11112;DHT22;5609;49.466;8.468;2022-08-06T20:05:45;22.10;1.00
11112;DHT22;5609;49.466;8.468;2022-08-06T20:08:12;21.90;1.00
11112;DHT22;5609;49.466;8.468;2022-08-06T20:10:41;21.90;1.00
11112;DHT22;5609;49.466;8.468;2022-08-06T20:13:08;21.80;1.00
11112;DHT22;5609;49.466;8.468;2022-08-06T20:15:35;21.80;1.00
11112;DHT22;5609;49.466;8.468;2022-08-06T20:18:04;21.70;1.00
11112;DHT22;5609;49.466;8.468;2022-08-06T20:20:31;21.60;1.00
11112;DHT22;5609;49.466;8.468;2022-08-06T20:22:59;21.60;1.00
11112;DHT22;5609;49.466;8.468;2022-08-06T20:25:27;21.60;1.00
11112;DHT22;5609;49.466;8.468;2022-08-06T20:27:54;21.50;1.00
11112;DHT22;5609;49.466;8.468;2022-08-06T20:30:21;21.60;1.00
11112;DHT22;5609;49.466;8.468;2022-08-06T20:32:48;21.50;1.00
11112;DHT22;5609;49.466;8.468;2022-08-06T20:35:16;21.70;1.00
11112;DHT22;5609;49.466;8.468;2022-08-06T20:37:43;21.70;1.00
11112;DHT22;5609;49.466;8.468;2022-08-06T20:40:11;21.90;1.00
11112;DHT22;5609;49.466;8.468;2022-08-06T20:42:41;22.10;1.00
11112;DHT22;5609;49.466;8.468;2022-08-06T20:45:09;22.10;6.20
11112;DHT22;5609;49.466;8.468;2022-08-06T20:47:37;22.10;1.00
11112;DHT22;5609;49.466;8.468;2022-08-06T20:50:05;22.10;1.00
11112;DHT22;5609;49.466;8.468;2022-08-06T20:52:33;22.00;1.00
11112;DHT22;5609;49.466;8.468;2022-08-06T20:55:01;21.90;1.00
11112;DHT22;5609;49.466;8.468;2022-08-06T20:57:28;21.70;1.00
11112;DHT22;5609;49.466;8.468;2022-08-06T20:59:59;21.70;1.00
11112;DHT22;5609;49.466;8.468;2022-08-06T21:02:27;21.60;1.00
11112;DHT22;5609;49.466;8.468;2022-08-06T21:04:54;21.60;1.00
11112;DHT22;5609;49.466;8.468;2022-08-06T21:07:22;21.50;1.00
11112;DHT22;5609;49.466;8.468;2022-08-06T21:09:51;21.40;1.00
11112;DHT22;5609;49.466;8.468;2022-08-06T21:12:17;21.40;1.00
11112;DHT22;5609;49.466;8.468;2022-08-06T21:14:44;21.40;1.00
11112;DHT22;5609;49.466;8.468;2022-08-06T21:17:11;21.40;1.00
11112;DHT22;5609;49.466;8.468;2022-08-06T21:19:38;21.30;1.60
11112;DHT22;5609;49.466;8.468;2022-08-06T21:22:07;21.20;2.80
11112;DHT22;5609;49.466;8.468;2022-08-06T21:24:35;21.20;3.80
11112;DHT22;5609;49.466;8.468;2022-08-06T21:27:03;21.20;5.20
11112;DHT22;5609;49.466;8.468;2022-08-06T21:29:30;21.10;5.60
11112;DHT22;5609;49.466;8.468;2022-08-06T21:31:57;21.20;8.60
11112;DHT22;5609;49.466;8.468;2022-08-06T21:34:25;21.10;8.70
11112;DHT22;5609;49.466;8.468;2022-08-06T21:36:52;21.00;9.40
11112;DHT22;5609;49.466;8.468;2022-08-06T21:39:18;21.00;9.60
11112;DHT22;5609;49.466;8.468;2022-08-06T21:41:46;20.90;10.40
11112;DHT22;5609;49.466;8.468;2022-08-06T21:44:14;20.90;13.00
11112;DHT22;5609;49.466;8.468;2022-08-06T21:46:41;20.90;16.50
11112;DHT22;5609;49.466;8.468;2022-08-06T21:49:08;20.80;16.30
11112;DHT22;5609;49.466;8.468;2022-08-06T21:51:35;20.80;16.10
11112;DHT22;5609;49.466;8.468;2022-08-06T21:54:03;20.70;20.10
11112;DHT22;5609;49.466;8.468;2022-08-06T21:56:30;20.70;22.00
11112;DHT22;5609;49.466;8.468;2022-08-06T21:58:57;20.70;24.90
11112;DHT22;5609;49.466;8.468;2022-08-06T22:01:26;20.80;24.80
11112;DHT22;5609;49.466;8.468;2022-08-06T22:03:55;20.70;29.20
11112;DHT22;5609;49.466;8.468;2022-08-06T22:06:22;20.70;27.70
11112;DHT22;5609;49.466;8.468;2022-08-06T22:08:50;20.70;28.80
11112;DHT22;5609;49.466;8.468;2022-08-06T22:11:17;20.60;30.70
11112;DHT22;5609;49.466;8.468;2022-08-06T22:13:44;20.60;34.20
11112;DHT22;5609;49.466;8.468;2022-08-06T22:16:11;20.60;40.80
11112;DHT22;5609;49.466;8.468;2022-08-06T22:18:39;20.60;45.00
11112;DHT22;5609;49.466;8.468;2022-08-06T22:21:06;20.70;48.50
11112;DHT22;5609;49.466;8.468;2022-08-06T22:23:33;20.90;52.60
11112;DHT22;5609;49.466;8.468;2022-08-06T22:26:00;21.00;57.40
11112;DHT22;5609;49.466;8.468;2022-08-06T22:28:27;21.10;61.80
11112;DHT22;5609;49.466;8.468;2022-08-06T22:30:54;21.10;59.30
11112;DHT22;5609;49.466;8.468;2022-08-06T22:33:21;21.10;65.70
11112;DHT22;5609;49.466;8.468;2022-08-06T22:35:50;21.00;58.80
11112;DHT22;5609;49.466;8.468;2022-08-06T22:38:17;20.90;72.90
11112;DHT22;5609;49.466;8.468;2022-08-06T22:40:47;20.90;65.70
11112;DHT22;5609;49.466;8.468;2022-08-06T22:43:15;20.90;78.40
11112;DHT22;5609;49.466;8.468;2022-08-06T22:45:43;20.80;82.30
11112;DHT22;5609;49.466;8.468;2022-08-06T22:48:12;20.90;87.00
11112;DHT22;5609;49.466;8.468;2022-08-06T22:50:40;20.70;82.70
11112;DHT22;5609;49.466;8.468;2022-08-06T22:53:09;20.70;92.70
11112;DHT22;5609;49.466;8.468;2022-08-06T22:55:36;20.50;93.10
11112;DHT22;5609;49.466;8.468;2022-08-06T22:58:04;20.50;99.90
11112;DHT22;5609;49.466;8.468;2022-08-06T23:00:31;20.50;97.50
11112;DHT22;5609;49.466;8.468;2022-08-06T23:02:58;20.30;99.80
11112;DHT22;5609;49.466;8.468;2022-08-06T23:05:25;20.20;99.90
11112;DHT22;5609;49.466;8.468;2022-08-06T23:07:51;20.10;99.90
11112;DHT22;5609;49.466;8.468;2022-08-06T23:10:20;20.00;99.90
11112;DHT22;5609;49.466;8.468;2022-08-06T23:12:47;19.90;99.90
11112;DHT22;5609;49.466;8.468;2022-08-06T23:15:14;19.70;99.90
11112;DHT22;5609;49.466;8.468;2022-08-06T23:17:42;19.70;99.90
11112;DHT22;5609;49.466;8.468;2022-08-06T23:20:09;19.60;99.90
11112;DHT22;5609;49.466;8.468;2022-08-06T23:22:37;19.60;99.90
11112;DHT22;5609;49.466;8.468;2022-08-06T23:25:04;19.60;99.90
11112;DHT22;5609;49.466;8.468;2022-08-06T23:27:32;19.50;99.90
11112;DHT22;5609;49.466;8.468;2022-08-06T23:29:59;19.50;99.90
11112;DHT22;5609;49.466;8.468;2022-08-06T23:32:26;19.60;99.90
11112;DHT22;5609;49.466;8.468;2022-08-06T23:34:52;19.50;99.90
11112;DHT22;5609;49.466;8.468;2022-08-06T23:37:19;19.60;99.90
11112;DHT22;5609;49.466;8.468;2022-08-06T23:39:46;19.60;99.90
11112;DHT22;5609;49.466;8.468;2022-08-06T23:42:13;19.50;99.90
11112;DHT22;5609;49.466;8.468;2022-08-06T23:44:41;19.40;99.90
11112;DHT22;5609;49.466;8.468;2022-08-06T23:47:08;19.40;99.90
11112;DHT22;5609;49.466;8.468;2022-08-06T23:49:34;19.30;99.90
11112;DHT22;5609;49.466;8.468;2022-08-06T23:52:01;19.40;99.90
11112;DHT22;5609;49.466;8.468;2022-08-06T23:54:28;19.30;99.90
11112;DHT22;5609;49.466;8.468;2022-08-06T23:56:55;19.40;99.90
11112;DHT22;5609;49.466;8.468;2022-08-06T23:59:22;19.50;99.90
